createdAt,value
2018-02-09T00:00:06.576Z,36.33
2018-02-09T00:02:33.104Z,20.52
2018-02-09T00:04:59.594Z,19.35
2018-02-09T00:07:33.085Z,50.95
2018-02-09T00:10:00.376Z,31.75
2018-02-09T00:12:40.136Z,22.05
2018-02-09T00:15:06.672Z,18.85
2018-02-09T00:17:33.169Z,17.20
2018-02-09T00:20:03.642Z,38.00
2018-02-09T00:22:42.461Z,21.23
2018-02-09T00:25:08.953Z,21.20
2018-02-09T00:27:35.433Z,16.25
2018-02-09T00:30:03.030Z,35.63
2018-02-09T00:32:29.548Z,26.90
2018-02-09T00:34:56.155Z,19.85
2018-02-09T00:37:23.425Z,20.00
2018-02-09T00:39:49.888Z,16.30
2018-02-09T00:42:16.387Z,14.95
2018-02-09T00:44:44.904Z,43.55
2018-02-09T00:47:11.389Z,48.47
2018-02-09T00:49:38.714Z,30.33
2018-02-09T00:52:05.250Z,31.05
2018-02-09T00:54:31.785Z,20.83
2018-02-09T00:57:00.061Z,65.35
2018-02-09T00:59:26.588Z,39.08
2018-02-09T01:01:53.114Z,22.00
2018-02-09T01:04:19.625Z,24.95
2018-02-09T01:06:46.184Z,26.17
2018-02-09T01:09:13.473Z,27.00
2018-02-09T01:11:39.998Z,18.77
2018-02-09T01:14:07.304Z,14.50
2018-02-09T01:16:33.876Z,39.67
2018-02-09T01:19:00.360Z,15.07
2018-02-09T01:21:26.967Z,20.20
2018-02-09T01:23:53.452Z,17.87
2018-02-09T01:26:20.033Z,16.85
2018-02-09T01:28:46.625Z,19.87
2018-02-09T01:31:13.111Z,46.20
2018-02-09T01:33:41.093Z,41.13
2018-02-09T01:36:07.610Z,55.63
2018-02-09T01:38:34.109Z,27.15
2018-02-09T01:41:00.590Z,32.03
2018-02-09T01:43:27.105Z,62.78
2018-02-09T01:45:53.580Z,29.17
2018-02-09T01:48:20.872Z,34.65
2018-02-09T01:50:47.392Z,54.50
2018-02-09T01:53:13.935Z,24.37
2018-02-09T01:55:40.443Z,49.80
2018-02-09T01:58:06.941Z,24.65
2018-02-09T02:00:33.436Z,31.23
2018-02-09T02:02:59.955Z,21.40
2018-02-09T02:05:26.525Z,29.27
2018-02-09T02:07:53.037Z,35.67
2018-02-09T02:10:19.591Z,70.70
2018-02-09T02:12:46.144Z,32.65
2018-02-09T02:15:12.635Z,22.23
2018-02-09T02:17:39.211Z,64.82
2018-02-09T02:20:05.837Z,41.45
2018-02-09T02:22:32.345Z,59.35
2018-02-09T02:24:59.549Z,26.95
2018-02-09T02:27:26.059Z,38.28
2018-02-09T02:29:52.533Z,26.65
2018-02-09T02:32:19.128Z,42.97
2018-02-09T02:34:45.591Z,79.97
2018-02-09T02:37:12.010Z,26.10
2018-02-09T02:39:38.450Z,51.70
2018-02-09T02:42:04.960Z,21.70
2018-02-09T02:44:31.384Z,18.05
2018-02-09T02:46:57.874Z,15.25
2018-02-09T02:49:24.364Z,17.92
2018-02-09T02:51:50.809Z,33.90
2018-02-09T02:54:17.272Z,77.15
2018-02-09T02:56:44.486Z,51.90
2018-02-09T02:59:10.909Z,79.95
2018-02-09T03:01:37.365Z,39.63
2018-02-09T03:04:03.889Z,33.80
2018-02-09T03:06:30.337Z,79.10
2018-02-09T03:08:56.769Z,76.45
2018-02-09T03:11:23.228Z,68.65
2018-02-09T03:13:49.680Z,28.35
2018-02-09T03:16:16.160Z,38.28
2018-02-09T03:18:42.617Z,25.65
2018-02-09T03:21:09.044Z,30.02
2018-02-09T03:23:35.467Z,67.62
2018-02-09T03:26:02.648Z,51.78
2018-02-09T03:28:29.088Z,46.15
2018-02-09T03:30:55.556Z,75.20
2018-02-09T03:33:22.755Z,62.50
2018-02-09T03:35:49.198Z,39.42
2018-02-09T03:38:15.641Z,60.55
2018-02-09T03:40:42.093Z,72.50
2018-02-09T03:43:08.499Z,69.97
2018-02-09T03:45:34.940Z,73.50
2018-02-09T03:48:01.449Z,82.12
2018-02-09T03:50:27.908Z,36.78
2018-02-09T03:52:54.352Z,38.45
2018-02-09T03:55:20.811Z,29.35
2018-02-09T03:57:47.217Z,28.33
2018-02-09T04:00:13.662Z,38.33
2018-02-09T04:02:40.098Z,15.63
2018-02-09T04:05:06.521Z,37.20
2018-02-09T04:07:32.969Z,17.98
2018-02-09T04:09:59.449Z,41.72
2018-02-09T04:12:25.893Z,31.27
2018-02-09T04:14:52.313Z,27.45
2018-02-09T04:17:18.823Z,22.50
2018-02-09T04:19:45.219Z,22.80
2018-02-09T04:22:11.626Z,21.40
2018-02-09T04:24:38.054Z,25.05
2018-02-09T04:27:04.501Z,22.83
2018-02-09T04:29:30.929Z,27.85
2018-02-09T04:31:57.365Z,32.95
2018-02-09T04:34:23.828Z,21.52
2018-02-09T04:36:50.237Z,32.55
2018-02-09T04:39:17.717Z,16.87
2018-02-09T04:41:44.165Z,37.15
2018-02-09T04:44:10.572Z,24.33
2018-02-09T04:46:37.056Z,34.22
2018-02-09T04:49:03.528Z,39.58
2018-02-09T04:51:29.928Z,55.47
2018-02-09T04:53:57.835Z,70.03
2018-02-09T04:56:24.233Z,67.07
2018-02-09T04:58:50.663Z,25.25
2018-02-09T05:01:17.105Z,31.05
2018-02-09T05:03:44.272Z,20.40
2018-02-09T05:06:11.427Z,21.60
2018-02-09T05:08:38.626Z,20.23
2018-02-09T05:11:05.012Z,63.75
2018-02-09T05:13:31.440Z,41.10
2018-02-09T05:15:57.904Z,59.08
2018-02-09T05:18:24.305Z,22.85
2018-02-09T05:20:50.732Z,32.05
2018-02-09T05:23:17.905Z,44.28
2018-02-09T05:25:44.340Z,49.80
2018-02-09T05:28:11.755Z,40.03
2018-02-09T05:30:38.172Z,30.33
2018-02-09T05:33:04.600Z,44.50
2018-02-09T05:35:31.024Z,23.87
2018-02-09T05:37:57.449Z,27.17
2018-02-09T05:40:23.884Z,54.75
2018-02-09T05:42:50.296Z,66.07
2018-02-09T05:45:16.753Z,55.00
2018-02-09T05:47:43.198Z,28.05
2018-02-09T05:50:09.616Z,34.17
2018-02-09T05:52:36.119Z,30.88
2018-02-09T05:55:03.025Z,28.10
2018-02-09T05:57:29.467Z,40.55
2018-02-09T05:59:55.908Z,35.58
2018-02-09T06:02:22.326Z,60.47
2018-02-09T06:04:48.737Z,23.87
2018-02-09T06:07:15.186Z,72.12
2018-02-09T06:09:41.613Z,61.42
2018-02-09T06:12:08.017Z,50.53
2018-02-09T06:14:34.435Z,31.80
2018-02-09T06:17:00.898Z,27.95
2018-02-09T06:19:27.295Z,21.17
2018-02-09T06:21:53.736Z,25.08
2018-02-09T06:24:20.877Z,30.08
2018-02-09T06:26:47.315Z,31.17
2018-02-09T06:29:14.515Z,40.22
2018-02-09T06:31:40.950Z,46.55
2018-02-09T06:34:07.409Z,83.32
2018-02-09T06:36:34.245Z,30.58
2018-02-09T06:39:00.756Z,36.53
2018-02-09T06:41:27.189Z,67.55
2018-02-09T06:43:53.685Z,34.53
2018-02-09T06:46:20.849Z,41.72
2018-02-09T06:48:47.316Z,81.70
2018-02-09T06:51:21.451Z,71.62
2018-02-09T06:53:50.458Z,74.93
2018-02-09T06:56:17.774Z,82.97
2018-02-09T06:58:44.204Z,71.70
2018-02-09T07:01:10.640Z,71.95
2018-02-09T07:03:37.053Z,74.30
2018-02-09T07:06:03.643Z,65.43
2018-02-09T07:08:30.112Z,72.40
2018-02-09T07:10:56.544Z,82.12
2018-02-09T07:13:22.980Z,70.25
2018-02-09T07:15:50.161Z,51.72
2018-02-09T07:18:16.625Z,44.67
2018-02-09T07:20:43.061Z,35.58
2018-02-09T07:23:09.476Z,54.72
2018-02-09T07:25:35.932Z,72.00
2018-02-09T07:28:02.428Z,85.30
2018-02-09T07:30:28.871Z,79.25
2018-02-09T07:32:55.277Z,62.95
2018-02-09T07:35:22.501Z,83.07
2018-02-09T07:37:48.970Z,75.60
2018-02-09T07:40:15.456Z,66.60
2018-02-09T07:42:41.905Z,65.75
2018-02-09T07:45:08.328Z,73.18
2018-02-09T07:47:35.484Z,61.92
2018-02-09T07:50:01.974Z,69.75
2018-02-09T07:52:28.408Z,74.75
2018-02-09T07:54:54.848Z,70.82
2018-02-09T07:57:21.324Z,78.05
2018-02-09T07:59:47.769Z,58.72
2018-02-09T08:02:15.696Z,79.57
2018-02-09T08:04:42.146Z,65.37
2018-02-09T08:07:08.586Z,75.12
2018-02-09T08:09:37.317Z,61.50
2018-02-09T08:12:04.488Z,73.87
2018-02-09T08:14:30.901Z,65.87
2018-02-09T08:16:57.353Z,73.05
2018-02-09T08:19:23.791Z,65.00
2018-02-09T08:21:50.238Z,78.93
2018-02-09T08:24:16.680Z,89.78
2018-02-09T08:26:43.169Z,69.30
2018-02-09T08:29:10.341Z,66.97
2018-02-09T08:31:36.763Z,78.55
2018-02-09T08:34:03.219Z,83.53
2018-02-09T08:36:29.687Z,80.68
2018-02-09T08:38:56.556Z,64.97
2018-02-09T08:41:22.981Z,73.12
2018-02-09T08:43:49.398Z,85.05
2018-02-09T08:46:15.827Z,71.95
2018-02-09T08:48:42.316Z,64.50
2018-02-09T08:51:09.489Z,89.62
2018-02-09T08:53:35.949Z,67.25
2018-02-09T08:56:02.405Z,73.32
2018-02-09T08:58:29.008Z,54.55
2018-02-09T09:00:55.408Z,75.28
2018-02-09T09:03:21.894Z,68.87
2018-02-09T09:05:48.340Z,66.03
2018-02-09T09:08:14.774Z,67.32
2018-02-09T09:10:42.029Z,58.40
2018-02-09T09:13:08.449Z,61.75
2018-02-09T09:15:34.945Z,71.68
2018-02-09T09:18:05.216Z,72.78
2018-02-09T09:20:46.827Z,76.22
2018-02-09T09:23:13.331Z,71.50
2018-02-09T09:25:46.425Z,72.47
2018-02-09T09:28:19.858Z,70.37
2018-02-09T09:30:47.010Z,62.72
2018-02-09T09:33:14.208Z,65.57
2018-02-09T09:35:40.764Z,72.62
2018-02-09T09:38:07.232Z,64.93
2018-02-09T09:40:34.396Z,64.87
2018-02-09T09:43:00.833Z,59.55
2018-02-09T09:45:28.004Z,66.72
2018-02-09T09:47:55.497Z,62.88
2018-02-09T09:50:22.250Z,57.70
2018-02-09T09:52:49.447Z,64.90
2018-02-09T09:55:15.888Z,55.75
2018-02-09T09:57:43.376Z,54.15
2018-02-09T10:00:14.895Z,58.30
2018-02-09T10:02:41.317Z,54.00
2018-02-09T10:05:08.515Z,65.32
2018-02-09T10:07:34.995Z,62.50
2018-02-09T10:10:04.472Z,60.38
2018-02-09T10:12:30.922Z,53.03
2018-02-09T10:14:57.370Z,62.22
2018-02-09T10:17:24.518Z,68.62
2018-02-09T10:19:51.726Z,62.60
2018-02-09T10:22:18.122Z,65.18
2018-02-09T10:24:44.702Z,49.80
2018-02-09T10:27:11.921Z,56.50
2018-02-09T10:29:42.528Z,54.63
2018-02-09T10:32:10.715Z,52.42
2018-02-09T10:34:37.133Z,64.03
2018-02-09T10:37:04.329Z,46.78
2018-02-09T10:39:30.737Z,47.92
2018-02-09T10:41:57.195Z,59.20
2018-02-09T10:44:23.598Z,65.68
2018-02-09T10:46:50.038Z,53.03
2018-02-09T10:49:17.529Z,49.30
2018-02-09T10:51:43.982Z,62.17
2018-02-09T10:54:10.416Z,44.27
2018-02-09T10:56:43.981Z,51.20
2018-02-09T10:59:10.429Z,51.03
2018-02-09T11:01:36.918Z,54.40
2018-02-09T11:04:03.369Z,50.80
2018-02-09T11:06:30.513Z,59.15
2018-02-09T11:09:03.697Z,57.55
2018-02-09T11:11:30.849Z,57.58
2018-02-09T11:13:58.051Z,58.58
2018-02-09T11:16:24.509Z,51.90
2018-02-09T11:18:50.940Z,47.72
2018-02-09T11:21:17.364Z,57.95
2018-02-09T11:23:50.966Z,57.90
2018-02-09T11:26:23.404Z,48.58
2018-02-09T11:28:49.836Z,47.85
2018-02-09T11:31:20.241Z,56.97
2018-02-09T11:34:00.626Z,52.75
2018-02-09T11:36:27.052Z,59.10
2018-02-09T11:38:53.486Z,58.53
2018-02-09T11:41:19.952Z,63.45
2018-02-09T11:43:46.404Z,47.38
2018-02-09T11:46:12.843Z,59.90
2018-02-09T11:48:39.292Z,42.58
2018-02-09T11:51:06.522Z,47.67
2018-02-09T11:53:33.058Z,39.03
2018-02-09T11:56:03.522Z,48.67
2018-02-09T11:58:33.981Z,56.50
2018-02-09T12:01:04.233Z,41.05
2018-02-09T12:03:40.718Z,58.55
2018-02-09T12:06:07.187Z,61.73
2018-02-09T12:08:35.400Z,58.65
2018-02-09T12:11:01.872Z,59.03
2018-02-09T12:13:29.056Z,63.42
2018-02-09T12:16:07.821Z,52.83
2018-02-09T12:18:40.710Z,47.17
2018-02-09T12:21:07.196Z,53.75
2018-02-09T12:23:50.622Z,62.17
2018-02-09T12:26:20.749Z,33.83
2018-02-09T12:29:01.086Z,43.35
2018-02-09T12:31:35.437Z,51.40
2018-02-09T12:34:09.751Z,38.37
2018-02-09T12:36:36.893Z,33.57
2018-02-09T12:39:04.113Z,46.77
2018-02-09T12:41:30.641Z,35.47
2018-02-09T12:43:57.077Z,36.47
2018-02-09T12:46:23.508Z,55.38
2018-02-09T12:48:49.940Z,49.63
2018-02-09T12:51:16.380Z,39.80
2018-02-09T12:53:42.813Z,53.30
2018-02-09T12:56:09.253Z,50.92
2018-02-09T12:58:42.717Z,60.12
2018-02-09T13:01:09.132Z,48.57
2018-02-09T13:03:50.392Z,42.97
2018-02-09T13:06:21.493Z,46.37
2018-02-09T13:08:47.918Z,53.73
2018-02-09T13:11:27.624Z,57.00
2018-02-09T13:14:01.923Z,37.83
2018-02-09T13:16:33.460Z,28.83
2018-02-09T13:18:59.943Z,57.92
2018-02-09T13:21:33.521Z,33.78
2018-02-09T13:24:12.316Z,49.03
2018-02-09T13:26:38.765Z,50.85
2018-02-09T13:29:05.208Z,48.20
2018-02-09T13:31:31.648Z,36.63
2018-02-09T13:33:58.069Z,53.57
2018-02-09T13:36:37.667Z,37.50
2018-02-09T13:39:04.130Z,53.23
2018-02-09T13:41:30.669Z,42.10
2018-02-09T13:43:57.102Z,40.50
2018-02-09T13:46:23.498Z,47.37
2018-02-09T13:48:49.929Z,37.60
2018-02-09T13:51:16.445Z,49.33
2018-02-09T13:53:43.646Z,52.30
2018-02-09T13:56:10.081Z,44.22
2018-02-09T13:58:36.593Z,48.37
2018-02-09T14:01:03.036Z,52.80
2018-02-09T14:03:30.331Z,46.97
2018-02-09T14:05:56.764Z,50.25
2018-02-09T14:08:23.168Z,50.33
2018-02-09T14:10:49.633Z,52.90
2018-02-09T14:13:18.161Z,157.32
2018-02-09T14:15:44.576Z,52.35
2018-02-09T14:18:11.032Z,51.33
2018-02-09T14:20:37.483Z,37.03
2018-02-09T14:23:03.923Z,40.55
2018-02-09T14:25:30.393Z,52.50
2018-02-09T14:27:56.830Z,55.58
2018-02-09T14:30:23.263Z,49.95
2018-02-09T14:32:50.421Z,52.43
2018-02-09T14:35:16.845Z,48.27
2018-02-09T14:37:44.114Z,36.58
2018-02-09T14:40:11.313Z,38.95
2018-02-09T14:42:37.777Z,39.38
2018-02-09T14:45:04.211Z,52.72
2018-02-09T14:47:30.680Z,31.60
2018-02-09T14:49:57.176Z,52.45
2018-02-09T14:52:23.588Z,46.90
2018-02-09T14:54:50.055Z,56.63
2018-02-09T14:57:16.529Z,52.87
2018-02-09T14:59:42.982Z,41.45
2018-02-09T15:02:09.443Z,57.43
2018-02-09T15:04:35.903Z,56.53
2018-02-09T15:07:02.364Z,51.97
2018-02-09T15:09:29.540Z,47.85
2018-02-09T15:11:55.990Z,50.10
2018-02-09T15:14:22.436Z,51.10
2018-02-09T15:16:48.892Z,53.80
2018-02-09T15:19:15.404Z,45.55
2018-02-09T15:21:41.941Z,55.65
2018-02-09T15:24:08.412Z,50.10
2018-02-09T15:26:35.630Z,52.65
2018-02-09T15:29:02.057Z,53.47
2018-02-09T15:31:28.461Z,44.70
2018-02-09T15:33:54.931Z,52.53
2018-02-09T15:36:21.392Z,56.03
2018-02-09T15:38:48.817Z,56.05
2018-02-09T15:41:15.266Z,36.83
2018-02-09T15:43:41.673Z,44.95
2018-02-09T15:46:08.105Z,37.15
2018-02-09T15:48:34.573Z,38.35
2018-02-09T15:51:01.012Z,45.93
2018-02-09T15:53:27.488Z,47.75
2018-02-09T15:55:53.968Z,45.65
2018-02-09T15:58:20.428Z,47.50
2018-02-09T16:00:49.392Z,49.42
2018-02-09T16:03:20.127Z,33.75
2018-02-09T16:05:47.512Z,33.03
2018-02-09T16:08:13.940Z,55.83
2018-02-09T16:10:41.144Z,50.50
2018-02-09T16:13:07.560Z,29.70
2018-02-09T16:15:34.016Z,26.62
2018-02-09T16:18:00.518Z,24.05
2018-02-09T16:20:27.721Z,30.65
2018-02-09T16:22:54.136Z,50.30
2018-02-09T16:25:20.609Z,43.63
2018-02-09T16:27:47.024Z,31.23
2018-02-09T16:30:26.689Z,23.27
2018-02-09T16:32:53.109Z,35.35
2018-02-09T16:35:28.692Z,49.60
2018-02-09T16:37:55.122Z,36.57
2018-02-09T16:40:21.523Z,43.37
2018-02-09T16:42:48.980Z,32.03
2018-02-09T16:45:22.426Z,24.20
2018-02-09T16:48:03.195Z,23.25
2018-02-09T16:50:30.377Z,51.72
2018-02-09T16:52:56.820Z,55.15
2018-02-09T16:55:23.300Z,45.50
2018-02-09T16:57:50.479Z,47.50
2018-02-09T17:00:16.885Z,41.53
2018-02-09T17:02:44.107Z,51.25
2018-02-09T17:05:10.592Z,55.85
2018-02-09T17:07:37.778Z,46.47
2018-02-09T17:10:04.266Z,43.00
2018-02-09T17:12:30.686Z,51.35
2018-02-09T17:14:57.121Z,51.20
2018-02-09T17:17:27.461Z,48.78
2018-02-09T17:19:54.644Z,32.80
2018-02-09T17:22:21.104Z,43.70
2018-02-09T17:24:47.521Z,36.80
2018-02-09T17:27:13.928Z,37.77
2018-02-09T17:29:40.468Z,48.97
2018-02-09T17:32:06.929Z,58.58
2018-02-09T17:34:33.348Z,38.42
2018-02-09T17:36:59.766Z,30.33
2018-02-09T17:39:26.928Z,52.53
2018-02-09T17:41:53.400Z,46.37
2018-02-09T17:44:19.841Z,50.08
2018-02-09T17:46:46.344Z,46.13
2018-02-09T17:49:14.824Z,54.92
2018-02-09T17:51:41.276Z,52.35
2018-02-09T17:54:07.771Z,49.03
2018-02-09T17:56:34.958Z,54.20
2018-02-09T17:59:01.504Z,58.80
2018-02-09T18:01:28.013Z,40.15
2018-02-09T18:03:55.507Z,59.20
2018-02-09T18:06:21.973Z,45.33
2018-02-09T18:08:48.458Z,46.63
2018-02-09T18:11:14.982Z,42.58
2018-02-09T18:13:41.470Z,46.33
2018-02-09T18:16:07.966Z,46.50
2018-02-09T18:18:34.575Z,51.72
2018-02-09T18:21:01.061Z,46.60
2018-02-09T18:23:28.357Z,48.30
2018-02-09T18:25:55.536Z,45.10
2018-02-09T18:28:22.031Z,60.67
2018-02-09T18:30:49.219Z,38.15
2018-02-09T18:33:15.739Z,23.77
2018-02-09T18:35:42.207Z,38.70
2018-02-09T18:38:08.710Z,56.67
2018-02-09T18:40:35.131Z,43.85
2018-02-09T18:43:02.366Z,52.50
2018-02-09T18:45:28.787Z,57.92
2018-02-09T18:47:55.260Z,63.45
2018-02-09T18:50:21.792Z,49.78
2018-02-09T18:52:48.305Z,43.53
2018-02-09T18:55:14.875Z,40.45
2018-02-09T18:57:41.400Z,23.48
2018-02-09T19:00:08.590Z,42.62
2018-02-09T19:02:35.105Z,30.05
2018-02-09T19:05:01.637Z,23.73
2018-02-09T19:07:28.096Z,15.65
2018-02-09T19:09:54.565Z,37.28
2018-02-09T19:12:20.975Z,56.70
2018-02-09T19:14:47.430Z,49.85
2018-02-09T19:17:14.225Z,28.52
2018-02-09T19:19:40.952Z,34.67
2018-02-09T19:22:08.237Z,43.30
2018-02-09T19:24:34.804Z,41.63
2018-02-09T19:27:03.381Z,26.08
2018-02-09T19:29:29.956Z,31.95
2018-02-09T19:31:56.621Z,15.40
2018-02-09T19:34:23.502Z,34.83
2018-02-09T19:36:49.916Z,39.70
2018-02-09T19:39:16.388Z,45.03
2018-02-09T19:41:42.812Z,35.25
2018-02-09T19:44:09.235Z,44.25
2018-02-09T19:46:35.685Z,51.53
2018-02-09T19:49:02.109Z,57.97
2018-02-09T19:51:28.560Z,48.30
2018-02-09T19:53:55.725Z,24.30
2018-02-09T19:56:22.160Z,20.50
2018-02-09T19:58:49.320Z,38.72
2018-02-09T20:01:16.487Z,65.87
2018-02-09T20:03:42.917Z,50.67
2018-02-09T20:06:09.351Z,52.45
2018-02-09T20:08:35.816Z,46.72
2018-02-09T20:11:02.239Z,50.20
2018-02-09T20:13:28.673Z,48.53
2018-02-09T20:15:55.133Z,48.15
2018-02-09T20:18:21.611Z,44.25
2018-02-09T20:20:48.021Z,33.13
2018-02-09T20:23:15.223Z,52.28
2018-02-09T20:25:41.732Z,35.58
2018-02-09T20:28:08.888Z,59.53
2018-02-09T20:30:36.057Z,42.30
2018-02-09T20:33:02.513Z,33.17
2018-02-09T20:35:28.920Z,31.42
2018-02-09T20:37:55.356Z,64.70
2018-02-09T20:40:21.780Z,24.15
2018-02-09T20:42:48.226Z,14.05
2018-02-09T20:45:14.737Z,15.57
2018-02-09T20:47:44.598Z,20.80
2018-02-09T20:50:11.127Z,25.30
2018-02-09T20:52:37.893Z,15.33
2018-02-09T20:55:04.386Z,19.33
2018-02-09T20:57:30.777Z,17.30
2018-02-09T20:59:58.789Z,21.02
2018-02-09T21:02:25.220Z,27.30
2018-02-09T21:04:51.643Z,37.22
2018-02-09T21:07:18.893Z,51.72
2018-02-09T21:09:49.468Z,62.23
2018-02-09T21:12:16.429Z,58.55
2018-02-09T21:14:42.891Z,44.35
2018-02-09T21:17:10.540Z,62.42
2018-02-09T21:19:37.883Z,34.95
2018-02-09T21:22:05.834Z,49.67
2018-02-09T21:24:32.296Z,58.83
2018-02-09T21:26:58.761Z,38.80
2018-02-09T21:29:25.949Z,49.67
2018-02-09T21:31:52.365Z,23.92
2018-02-09T21:34:19.512Z,58.25
2018-02-09T21:36:45.992Z,18.80
2018-02-09T21:39:12.444Z,19.35
2018-02-09T21:41:38.858Z,19.75
2018-02-09T21:44:05.309Z,15.95
2018-02-09T21:46:31.756Z,16.63
2018-02-09T21:48:58.163Z,11.25
2018-02-09T21:51:24.605Z,14.50
2018-02-09T21:53:57.224Z,20.90
2018-02-09T21:56:24.411Z,18.90
2018-02-09T21:58:51.852Z,39.60
2018-02-09T22:01:18.347Z,40.40
2018-02-09T22:03:44.858Z,36.37
2018-02-09T22:06:11.294Z,20.33
2018-02-09T22:08:37.936Z,16.85
2018-02-09T22:11:04.347Z,45.75
2018-02-09T22:13:30.788Z,21.30
2018-02-09T22:15:57.268Z,20.13
2018-02-09T22:18:23.716Z,17.27
2018-02-09T22:20:50.168Z,12.10
2018-02-09T22:23:16.617Z,14.52
2018-02-09T22:25:43.072Z,19.02
2018-02-09T22:28:09.469Z,17.45
2018-02-09T22:30:35.939Z,17.12
2018-02-09T22:33:02.357Z,16.23
2018-02-09T22:35:28.792Z,18.75
2018-02-09T22:37:55.237Z,26.33
2018-02-09T22:40:22.760Z,27.00
2018-02-09T22:42:49.186Z,18.30
2018-02-09T22:45:16.360Z,18.60
2018-02-09T22:47:42.788Z,28.77
2018-02-09T22:50:09.193Z,25.97
2018-02-09T22:52:36.402Z,19.43
2018-02-09T22:55:02.828Z,15.00
2018-02-09T22:57:29.220Z,14.43
2018-02-09T22:59:56.398Z,40.27
2018-02-09T23:02:22.836Z,61.97
2018-02-09T23:04:53.086Z,44.88
2018-02-09T23:07:19.572Z,25.37
2018-02-09T23:09:45.977Z,58.75
2018-02-09T23:12:12.396Z,62.90
2018-02-09T23:14:39.673Z,48.13
2018-02-09T23:17:06.876Z,18.10
2018-02-09T23:19:36.887Z,36.78
2018-02-09T23:22:03.360Z,42.78
2018-02-09T23:24:29.776Z,35.78
2018-02-09T23:26:56.245Z,31.75
2018-02-09T23:29:23.408Z,30.20
2018-02-09T23:31:50.624Z,51.47
2018-02-09T23:34:17.102Z,31.20
2018-02-09T23:36:43.528Z,60.22
2018-02-09T23:39:10.004Z,30.15
2018-02-09T23:41:36.460Z,29.87
2018-02-09T23:44:02.893Z,21.17
2018-02-09T23:46:29.341Z,46.33
2018-02-09T23:48:55.732Z,49.50
2018-02-09T23:51:22.162Z,54.35
2018-02-09T23:53:48.574Z,53.20
2018-02-09T23:56:15.720Z,61.40
2018-02-09T23:58:43.035Z,63.25
